createdAt,value
2023-06-05T00:01:26.102Z,37.65
2023-06-05T00:03:54.606Z,32.80
2023-06-05T00:06:21.407Z,34.15
2023-06-05T00:08:51.418Z,32.25
2023-06-05T00:11:17.858Z,30.73
2023-06-05T00:13:44.243Z,27.88
2023-06-05T00:16:10.788Z,39.10
2023-06-05T00:18:37.194Z,35.40
2023-06-05T00:21:04.983Z,38.03
2023-06-05T00:23:31.696Z,41.92
2023-06-05T00:25:58.828Z,51.55
2023-06-05T00:28:26.032Z,55.60
2023-06-05T00:30:52.554Z,41.67
2023-06-05T00:33:18.965Z,43.00
2023-06-05T00:35:45.395Z,46.15
2023-06-05T00:38:11.873Z,49.78
2023-06-05T00:40:38.262Z,57.10
2023-06-05T00:43:06.863Z,40.58
2023-06-05T00:45:34.464Z,46.10
2023-06-05T00:48:01.098Z,38.22
2023-06-05T00:50:27.857Z,45.33
2023-06-05T00:52:55.078Z,52.70
2023-06-05T00:55:22.050Z,56.55
2023-06-05T00:57:48.515Z,59.88
2023-06-05T01:00:15.584Z,70.70
2023-06-05T01:02:45.539Z,82.15
2023-06-05T01:05:14.058Z,70.38
2023-06-05T01:07:43.164Z,122.28
2023-06-05T01:10:11.010Z,88.68
2023-06-05T01:13:06.457Z,103.80
2023-06-05T01:15:34.887Z,81.80
2023-06-05T01:18:01.953Z,96.10
2023-06-05T01:20:39.842Z,93.03
2023-06-05T01:23:07.541Z,68.50
2023-06-05T01:25:35.984Z,108.85
2023-06-05T01:28:23.922Z,128.00
2023-06-05T01:31:06.788Z,89.72
2023-06-05T01:33:44.402Z,90.80
2023-06-05T01:36:15.307Z,81.82
2023-06-05T01:38:43.820Z,58.72
2023-06-05T01:41:11.863Z,73.70
2023-06-05T01:43:39.556Z,75.88
2023-06-05T01:46:08.537Z,108.22
2023-06-05T01:48:36.218Z,94.82
2023-06-05T01:51:03.044Z,78.90
2023-06-05T01:53:30.647Z,66.38
2023-06-05T01:56:00.859Z,75.25
2023-06-05T01:58:28.144Z,52.45
2023-06-05T02:00:55.122Z,78.53
2023-06-05T02:03:22.348Z,66.88
2023-06-05T02:05:48.998Z,67.30
2023-06-05T02:08:20.324Z,68.45
2023-06-05T02:10:48.068Z,74.80
2023-06-05T02:13:16.724Z,76.82
2023-06-05T02:15:47.950Z,77.90
2023-06-05T02:18:14.397Z,71.22
2023-06-05T02:20:42.282Z,59.25
2023-06-05T02:23:09.230Z,80.35
2023-06-05T02:25:35.844Z,67.32
2023-06-05T02:28:04.556Z,69.65
2023-06-05T02:30:31.444Z,76.75
2023-06-05T02:33:01.711Z,55.80
2023-06-05T02:35:28.499Z,52.08
2023-06-05T02:37:55.065Z,40.05
2023-06-05T02:40:24.461Z,65.53
2023-06-05T02:42:51.289Z,70.03
2023-06-05T02:45:17.960Z,70.15
2023-06-05T02:47:44.480Z,65.30
2023-06-05T02:50:11.119Z,75.97
2023-06-05T02:52:40.813Z,74.95
2023-06-05T02:55:10.222Z,83.55
2023-06-05T02:57:42.202Z,59.35
2023-06-05T03:00:10.549Z,41.97
2023-06-05T03:02:37.966Z,53.78
2023-06-05T03:05:05.242Z,66.97
2023-06-05T03:07:34.955Z,72.35
2023-06-05T03:10:02.336Z,50.95
2023-06-05T03:12:28.833Z,50.60
2023-06-05T03:14:56.094Z,52.53
2023-06-05T03:17:24.326Z,49.53
2023-06-05T03:19:51.408Z,53.70
2023-06-05T03:22:18.933Z,67.60
2023-06-05T03:24:46.590Z,54.28
2023-06-05T03:27:15.312Z,52.58
2023-06-05T03:29:41.734Z,67.30
2023-06-05T03:32:11.605Z,54.88
2023-06-05T03:34:38.069Z,53.15
2023-06-05T03:37:05.084Z,69.05
2023-06-05T03:39:32.060Z,83.70
2023-06-05T03:41:58.516Z,121.82
2023-06-05T03:44:25.478Z,97.93
2023-06-05T03:46:55.199Z,172.80
2023-06-05T03:49:23.485Z,104.63
2023-06-05T03:51:50.834Z,194.15
2023-06-05T03:54:17.861Z,97.65
2023-06-05T03:56:52.376Z,115.47
2023-06-05T03:59:23.372Z,124.20
2023-06-05T04:01:49.900Z,75.78
2023-06-05T04:04:16.834Z,64.72
2023-06-05T04:06:44.572Z,103.55
2023-06-05T04:09:13.881Z,142.88
2023-06-05T04:11:45.186Z,105.07
2023-06-05T04:14:12.375Z,85.90
2023-06-05T04:16:39.985Z,153.70
2023-06-05T04:19:07.732Z,87.80
2023-06-05T04:21:36.974Z,153.43
2023-06-05T04:24:07.956Z,78.85
2023-06-05T04:26:35.517Z,89.10
2023-06-05T04:29:14.528Z,159.30
2023-06-05T04:31:45.287Z,93.95
2023-06-05T04:34:12.059Z,81.03
2023-06-05T04:36:39.178Z,180.93
2023-06-05T04:39:07.176Z,125.22
2023-06-05T04:41:34.004Z,140.73
2023-06-05T04:44:03.255Z,156.18
2023-06-05T04:46:29.894Z,177.82
2023-06-05T04:48:58.561Z,208.13
2023-06-05T04:51:25.339Z,135.43
2023-06-05T04:53:53.577Z,224.32
2023-06-05T04:56:22.739Z,107.78
2023-06-05T04:58:51.287Z,87.80
2023-06-05T05:01:18.103Z,56.83
2023-06-05T05:03:45.803Z,59.63
2023-06-05T05:06:15.799Z,57.63
2023-06-05T05:08:42.976Z,76.93
2023-06-05T05:11:09.745Z,59.53
2023-06-05T05:13:36.484Z,62.28
2023-06-05T05:16:03.036Z,58.03
2023-06-05T05:18:29.572Z,56.08
2023-06-05T05:20:56.171Z,54.53
2023-06-05T05:23:22.694Z,47.00
2023-06-05T05:25:49.155Z,50.28
2023-06-05T05:28:15.661Z,42.05
2023-06-05T05:30:48.794Z,39.63
2023-06-05T05:33:15.830Z,40.85
2023-06-05T05:35:44.384Z,45.58
2023-06-05T05:38:11.830Z,64.43
2023-06-05T05:40:38.357Z,62.38
2023-06-05T05:43:04.832Z,59.17
2023-06-05T05:45:31.290Z,69.97
2023-06-05T05:47:57.886Z,87.95
2023-06-05T05:50:24.350Z,58.58
2023-06-05T05:52:52.945Z,44.72
2023-06-05T05:55:19.347Z,59.95
2023-06-05T05:57:45.736Z,42.65
2023-06-05T06:00:13.704Z,45.53
2023-06-05T06:02:40.734Z,49.22
2023-06-05T06:05:07.505Z,44.97
2023-06-05T06:07:33.926Z,42.25
2023-06-05T06:10:00.398Z,46.63
2023-06-05T06:12:28.892Z,46.45
2023-06-05T06:14:55.912Z,43.40
2023-06-05T06:17:22.897Z,45.97
2023-06-05T06:19:49.545Z,39.22
2023-06-05T06:22:16.278Z,45.80
2023-06-05T06:24:43.809Z,43.40
2023-06-05T06:27:28.336Z,42.17
2023-06-05T06:29:57.969Z,39.88
2023-06-05T06:32:26.697Z,47.60
2023-06-05T06:34:55.071Z,40.33
2023-06-05T06:37:21.846Z,37.75
2023-06-05T06:39:48.900Z,38.88
2023-06-05T06:42:15.785Z,42.75
2023-06-05T06:44:42.762Z,42.83
2023-06-05T06:47:12.208Z,42.45
2023-06-05T06:49:40.699Z,44.22
2023-06-05T06:52:07.396Z,43.08
2023-06-05T06:54:33.821Z,40.30
2023-06-05T06:57:00.407Z,41.33
2023-06-05T06:59:27.018Z,39.33
2023-06-05T07:02:12.477Z,40.60
2023-06-05T07:04:39.481Z,36.05
2023-06-05T07:07:06.183Z,33.95
2023-06-05T07:09:32.617Z,39.00
2023-06-05T07:11:59.749Z,40.53
2023-06-05T07:14:26.151Z,34.28
2023-06-05T07:16:57.076Z,34.63
2023-06-05T07:19:23.601Z,32.75
2023-06-05T07:21:50.052Z,32.20
2023-06-05T07:24:16.479Z,26.10
2023-06-05T07:26:43.054Z,29.33
2023-06-05T07:29:10.080Z,40.63
2023-06-05T07:31:37.411Z,31.92
2023-06-05T07:34:06.869Z,31.20
2023-06-05T07:36:34.337Z,34.53
2023-06-05T07:39:00.873Z,33.40
2023-06-05T07:41:27.421Z,30.08
2023-06-05T07:43:53.896Z,34.13
2023-06-05T07:46:20.473Z,32.70
2023-06-05T07:48:46.933Z,28.55
2023-06-05T07:51:13.682Z,28.50
2023-06-05T07:53:40.303Z,28.92
2023-06-05T07:56:09.653Z,29.55
2023-06-05T07:58:36.197Z,28.88
2023-06-05T08:01:05.013Z,39.40
2023-06-05T08:03:31.538Z,30.85
2023-06-05T08:05:58.386Z,27.27
2023-06-05T08:08:24.896Z,30.50
2023-06-05T08:10:51.906Z,31.80
2023-06-05T08:13:18.430Z,24.02
2023-06-05T08:15:44.973Z,23.75
2023-06-05T08:18:11.598Z,22.80
2023-06-05T08:20:38.139Z,25.73
2023-06-05T08:23:07.827Z,28.20
2023-06-05T08:25:38.092Z,25.80
2023-06-05T08:28:04.580Z,20.80
2023-06-05T08:30:31.136Z,20.60
2023-06-05T08:32:57.956Z,19.58
2023-06-05T08:35:24.457Z,18.05
2023-06-05T08:37:50.949Z,20.98
2023-06-05T08:40:19.940Z,18.60
2023-06-05T08:42:46.588Z,18.23
2023-06-05T08:45:13.197Z,18.63
2023-06-05T08:47:39.982Z,18.55
2023-06-05T08:50:07.989Z,18.15
2023-06-05T08:52:36.638Z,18.35
2023-06-05T08:55:05.875Z,21.17
2023-06-05T08:57:38.639Z,21.02
2023-06-05T09:00:12.017Z,20.77
2023-06-05T09:02:40.875Z,17.13
2023-06-05T09:05:09.579Z,19.58
2023-06-05T09:07:40.141Z,17.45
2023-06-05T09:10:07.962Z,18.77
2023-06-05T09:12:54.893Z,18.63
2023-06-05T09:15:26.877Z,16.63
2023-06-05T09:18:13.722Z,15.85
2023-06-05T09:20:41.947Z,16.08
2023-06-05T09:23:29.177Z,19.20
2023-06-05T09:25:59.893Z,19.25
2023-06-05T09:28:27.498Z,16.13
2023-06-05T09:30:59.493Z,18.77
2023-06-05T09:33:28.631Z,16.42
2023-06-05T09:36:10.972Z,22.70
2023-06-05T09:38:40.075Z,17.88
2023-06-05T09:41:11.404Z,16.65
2023-06-05T09:43:39.070Z,18.15
2023-06-05T09:46:13.261Z,15.05
2023-06-05T09:48:42.447Z,13.35
2023-06-05T09:51:13.211Z,13.02
2023-06-05T09:53:45.681Z,17.40
2023-06-05T09:56:16.935Z,13.77
2023-06-05T09:58:46.655Z,11.65
2023-06-05T10:01:31.350Z,12.98
2023-06-05T10:04:02.222Z,12.80
2023-06-05T10:06:31.020Z,18.58
2023-06-05T10:08:58.024Z,14.55
2023-06-05T10:11:28.419Z,15.73
2023-06-05T10:13:55.922Z,15.57
2023-06-05T10:16:26.938Z,12.48
2023-06-05T10:18:56.490Z,15.27
2023-06-05T10:21:23.937Z,13.25
2023-06-05T10:23:59.599Z,15.07
2023-06-05T10:26:32.213Z,15.95
2023-06-05T10:29:10.816Z,14.25
2023-06-05T10:31:54.525Z,13.80
2023-06-05T10:34:36.406Z,12.87
2023-06-05T10:37:23.971Z,14.15
2023-06-05T10:39:51.343Z,14.57
2023-06-05T10:42:27.233Z,17.67
2023-06-05T10:44:54.513Z,9.35
2023-06-05T10:47:33.355Z,14.63
2023-06-05T10:50:22.139Z,11.07
2023-06-05T10:52:50.043Z,11.07
2023-06-05T10:55:18.495Z,13.38
2023-06-05T10:57:57.039Z,15.70
2023-06-05T11:00:23.587Z,21.58
2023-06-05T11:02:50.095Z,16.77
2023-06-05T11:05:16.676Z,9.70
2023-06-05T11:07:46.412Z,9.25
2023-06-05T11:10:26.605Z,13.25
2023-06-05T11:12:53.086Z,8.15
2023-06-05T11:15:28.377Z,6.85
2023-06-05T11:17:54.968Z,6.18
2023-06-05T11:20:24.396Z,5.60
2023-06-05T11:22:56.865Z,6.80
2023-06-05T11:25:25.424Z,6.53
2023-06-05T11:27:53.524Z,7.20
2023-06-05T11:30:39.364Z,8.35
2023-06-05T11:33:10.349Z,6.85
2023-06-05T11:35:37.446Z,7.40
2023-06-05T11:38:20.285Z,6.30
2023-06-05T11:40:49.853Z,7.82
2023-06-05T11:43:16.856Z,6.05
2023-06-05T11:45:51.519Z,6.65
2023-06-05T11:48:18.295Z,8.35
2023-06-05T11:51:02.319Z,7.63
2023-06-05T11:53:30.033Z,8.40
2023-06-05T11:56:08.874Z,7.07
2023-06-05T11:58:37.798Z,11.20
2023-06-05T12:01:26.640Z,7.55
2023-06-05T12:04:07.247Z,7.60
2023-06-05T12:06:35.399Z,7.97
2023-06-05T12:09:12.746Z,8.10
2023-06-05T12:11:39.692Z,6.68
2023-06-05T12:14:10.084Z,7.05
2023-06-05T12:16:38.528Z,8.05
2023-06-05T12:19:16.216Z,12.82
2023-06-05T12:21:44.626Z,7.65
2023-06-05T12:24:15.437Z,7.43
2023-06-05T12:26:55.291Z,6.55
2023-06-05T12:29:27.444Z,8.45
2023-06-05T12:31:54.455Z,8.02
2023-06-05T12:35:00.247Z,7.90
2023-06-05T12:37:43.504Z,8.95
2023-06-05T12:40:12.488Z,8.00
2023-06-05T12:42:41.429Z,8.10
2023-06-05T12:45:08.900Z,8.38
2023-06-05T12:47:36.079Z,7.75
2023-06-05T12:50:04.501Z,10.18
2023-06-05T12:52:33.546Z,10.32
2023-06-05T12:55:01.026Z,10.25
2023-06-05T12:57:27.513Z,9.52
2023-06-05T12:59:55.624Z,8.45
2023-06-05T13:02:22.957Z,8.45
2023-06-05T13:04:49.556Z,9.10
2023-06-05T13:07:19.995Z,8.90
2023-06-05T13:09:46.444Z,8.40
2023-06-05T13:12:12.833Z,8.90
2023-06-05T13:14:39.279Z,8.93
2023-06-05T13:17:05.822Z,9.00
2023-06-05T13:19:32.429Z,10.65
2023-06-05T13:21:58.853Z,9.80
2023-06-05T13:24:25.990Z,9.95
2023-06-05T13:26:52.742Z,10.77
2023-06-05T13:29:19.219Z,10.95
2023-06-05T13:31:45.914Z,11.15
2023-06-05T13:34:13.259Z,9.25
2023-06-05T13:36:39.867Z,12.65
2023-06-05T13:39:06.360Z,12.25
2023-06-05T13:41:32.862Z,10.23
2023-06-05T13:43:59.391Z,10.95
2023-06-05T13:46:27.216Z,12.23
2023-06-05T13:48:54.066Z,11.80
2023-06-05T13:51:20.491Z,10.85
2023-06-05T13:53:47.785Z,10.10
2023-06-05T13:56:14.181Z,11.50
2023-06-05T13:58:40.733Z,11.90
2023-06-05T14:01:07.176Z,11.18
2023-06-05T14:03:33.702Z,10.95
2023-06-05T14:06:00.599Z,10.48
2023-06-05T14:08:28.557Z,10.02
2023-06-05T14:10:55.382Z,10.93
2023-06-05T14:13:21.804Z,11.18
2023-06-05T14:15:48.814Z,10.45
2023-06-05T14:18:15.393Z,10.18
2023-06-05T14:20:41.871Z,9.30
2023-06-05T14:23:08.380Z,10.05
2023-06-05T14:25:34.789Z,8.68
2023-06-05T14:28:01.216Z,9.25
2023-06-05T14:30:28.268Z,8.02
2023-06-05T14:32:55.198Z,8.05
2023-06-05T14:35:23.428Z,7.90
2023-06-05T14:37:50.157Z,8.40
2023-06-05T14:40:16.833Z,6.15
2023-06-05T14:42:47.869Z,6.53
2023-06-05T14:45:16.948Z,6.00
2023-06-05T14:47:45.214Z,6.70
2023-06-05T14:50:11.775Z,5.93
2023-06-05T14:52:38.244Z,5.45
2023-06-05T15:03:51.602Z,5.47
2023-06-05T15:06:23.237Z,6.00
2023-06-05T15:08:51.675Z,6.07
2023-06-05T15:11:18.364Z,7.05
2023-06-05T15:13:44.816Z,6.43
2023-06-05T15:16:11.260Z,6.65
2023-06-05T15:18:37.649Z,6.78
2023-06-05T15:21:04.203Z,6.75
2023-06-05T15:23:30.926Z,7.47
2023-06-05T15:25:57.410Z,7.00
2023-06-05T15:28:23.817Z,6.43
2023-06-05T15:30:50.287Z,6.75
2023-06-05T15:33:17.179Z,6.95
2023-06-05T15:35:45.190Z,6.85
2023-06-05T15:38:12.351Z,6.43
2023-06-05T15:40:38.811Z,6.10
2023-06-05T15:43:09.198Z,7.03
2023-06-05T15:45:36.736Z,6.40
2023-06-05T15:48:03.829Z,6.13
2023-06-05T15:50:30.370Z,7.22
2023-06-05T15:52:56.988Z,6.70
2023-06-05T15:55:23.444Z,6.85
2023-06-05T15:57:50.004Z,6.70
2023-06-05T16:00:17.724Z,6.13
2023-06-05T16:02:44.573Z,6.32
2023-06-05T16:05:11.858Z,7.13
2023-06-05T16:07:38.492Z,6.25
2023-06-05T16:10:05.415Z,6.50
2023-06-05T16:12:31.898Z,6.53
2023-06-05T16:14:58.335Z,6.63
2023-06-05T16:17:24.877Z,7.13
2023-06-05T16:19:53.364Z,6.72
2023-06-05T16:22:21.212Z,6.07
2023-06-05T16:24:47.654Z,7.00
2023-06-05T16:27:20.051Z,6.32
2023-06-05T16:29:47.519Z,6.32
2023-06-05T16:32:14.489Z,6.40
2023-06-05T16:34:41.293Z,5.85
2023-06-05T16:37:08.671Z,6.65
2023-06-05T16:39:35.652Z,5.95
2023-06-05T16:42:03.455Z,5.90
2023-06-05T16:44:30.793Z,6.47
2023-06-05T16:46:57.362Z,5.95
2023-06-05T16:49:23.962Z,6.45
2023-06-05T16:51:50.502Z,6.63
2023-06-05T16:54:17.423Z,6.18
2023-06-05T16:56:43.998Z,6.32
2023-06-05T16:59:15.060Z,6.60
2023-06-05T17:01:41.994Z,6.60
2023-06-05T17:04:09.099Z,6.50
2023-06-05T17:06:36.354Z,6.53
2023-06-05T17:09:04.231Z,6.43
2023-06-05T17:11:30.686Z,6.60
2023-06-05T17:13:57.133Z,6.97
2023-06-05T17:16:23.596Z,6.88
2023-06-05T17:18:50.214Z,6.43
2023-06-05T17:21:16.698Z,7.63
2023-06-05T17:23:43.224Z,7.15
2023-06-05T17:26:10.673Z,7.90
2023-06-05T17:28:37.252Z,7.85
2023-06-05T17:31:03.853Z,7.85
2023-06-05T17:33:30.450Z,7.95
2023-06-05T17:35:56.866Z,7.53
2023-06-05T17:38:23.371Z,6.63
2023-06-05T17:40:49.814Z,12.63
2023-06-05T17:43:16.291Z,7.22
2023-06-05T17:45:42.705Z,7.50
2023-06-05T17:48:10.430Z,7.45
2023-06-05T17:50:37.117Z,7.38
2023-06-05T17:53:03.971Z,7.78
2023-06-05T17:55:30.685Z,7.38
2023-06-05T17:57:57.658Z,8.32
2023-06-05T18:00:25.934Z,12.80
2023-06-05T18:02:52.881Z,9.02
2023-06-05T18:05:20.023Z,9.43
2023-06-05T18:07:46.754Z,8.30
2023-06-05T18:10:13.176Z,12.25
2023-06-05T18:12:40.699Z,9.60
2023-06-05T18:15:07.956Z,10.35
2023-06-05T18:17:34.386Z,7.80
2023-06-05T18:20:00.789Z,10.45
2023-06-05T18:22:27.969Z,9.52
2023-06-05T18:24:54.385Z,11.15
2023-06-05T18:27:20.861Z,11.60
2023-06-05T18:29:47.623Z,7.38
2023-06-05T18:32:16.183Z,10.27
2023-06-05T18:34:42.871Z,11.07
2023-06-05T18:37:09.320Z,10.50
2023-06-05T18:39:35.743Z,11.13
2023-06-05T18:42:02.699Z,10.48
2023-06-05T18:44:29.182Z,10.77
2023-06-05T18:46:56.327Z,10.90
2023-06-05T18:49:22.845Z,12.60
2023-06-05T18:51:49.530Z,12.85
2023-06-05T18:54:16.040Z,14.57
2023-06-05T18:56:42.493Z,11.20
2023-06-05T18:59:09.178Z,14.07
2023-06-05T19:01:35.692Z,12.93
2023-06-05T19:04:02.393Z,13.30
2023-06-05T19:06:28.882Z,14.35
2023-06-05T19:08:55.418Z,13.95
2023-06-05T19:11:22.643Z,15.07
2023-06-05T19:13:49.260Z,14.88
2023-06-05T19:16:27.943Z,13.45
2023-06-05T19:18:54.457Z,14.07
2023-06-05T19:21:21.358Z,12.93
2023-06-05T19:23:47.878Z,12.77
2023-06-05T19:26:14.382Z,11.45
2023-06-05T19:28:40.896Z,11.07
2023-06-05T19:31:07.634Z,10.98
2023-06-05T19:33:35.178Z,11.30
2023-06-05T19:36:01.633Z,11.75
2023-06-05T19:38:28.087Z,11.50
2023-06-05T19:40:56.170Z,10.77
2023-06-05T19:43:22.705Z,10.05
2023-06-05T19:45:49.135Z,9.80
2023-06-05T19:48:15.564Z,11.10
2023-06-05T19:50:42.112Z,11.93
2023-06-05T19:53:08.808Z,13.73
2023-06-05T19:55:35.640Z,11.40
2023-06-05T19:58:02.611Z,11.98
2023-06-05T20:03:14.978Z,13.88
2023-06-05T20:05:41.569Z,13.43
2023-06-05T20:08:07.984Z,14.43
2023-06-05T20:10:34.958Z,14.10
2023-06-05T20:13:01.401Z,16.90
2023-06-05T20:15:28.566Z,18.05
2023-06-05T20:17:55.086Z,18.35
2023-06-05T20:20:21.732Z,18.20
2023-06-05T20:22:48.170Z,15.57
2023-06-05T20:25:14.818Z,19.13
2023-06-05T20:27:41.218Z,14.68
2023-06-05T20:30:08.212Z,14.35
2023-06-05T20:32:34.719Z,20.15
2023-06-05T20:35:01.454Z,18.73
2023-06-05T20:37:31.349Z,14.80
2023-06-05T20:39:59.504Z,17.33
2023-06-05T20:42:30.165Z,14.13
2023-06-05T20:44:57.791Z,15.98
2023-06-05T20:47:24.538Z,25.17
2023-06-05T20:49:50.984Z,24.73
2023-06-05T20:52:17.456Z,18.85
2023-06-05T20:54:43.899Z,21.00
2023-06-05T20:57:14.849Z,19.63
2023-06-05T20:59:43.460Z,16.05
2023-06-05T21:02:11.675Z,21.40
2023-06-05T21:04:42.203Z,15.95
2023-06-05T21:07:08.850Z,16.83
2023-06-05T21:09:35.583Z,15.05
2023-06-05T21:12:03.034Z,14.15
2023-06-05T21:14:32.980Z,13.68
2023-06-05T21:16:59.464Z,13.85
2023-06-05T21:19:25.981Z,15.20
2023-06-05T21:21:52.435Z,16.23
2023-06-05T21:24:18.809Z,13.50
2023-06-05T21:26:45.259Z,12.20
2023-06-05T21:29:11.626Z,13.13
2023-06-05T21:31:47.621Z,14.65
2023-06-05T21:34:17.117Z,21.25
2023-06-05T21:36:45.508Z,22.23
2023-06-05T21:39:13.902Z,22.73
2023-06-05T21:41:40.984Z,20.13
2023-06-05T21:44:07.709Z,25.70
2023-06-05T21:46:34.101Z,29.85
2023-06-05T21:49:00.614Z,30.15
2023-06-05T21:51:26.997Z,25.40
2023-06-05T21:53:53.406Z,29.15
2023-06-05T21:56:19.777Z,29.13
2023-06-05T21:58:46.186Z,32.47
2023-06-05T22:01:12.832Z,34.40
2023-06-05T22:03:39.650Z,29.17
2023-06-05T22:06:06.732Z,39.17
2023-06-05T22:08:33.164Z,37.97
2023-06-05T22:10:59.566Z,37.63
2023-06-05T22:13:29.341Z,46.15
2023-06-05T22:15:56.721Z,45.60
2023-06-05T22:18:28.163Z,61.50
2023-06-05T22:20:54.701Z,70.63
2023-06-05T22:23:21.370Z,78.13
2023-06-05T22:25:52.387Z,203.85
2023-06-05T22:28:19.806Z,168.50
2023-06-05T22:30:46.505Z,153.40
2023-06-05T22:33:13.864Z,250.18
2023-06-05T22:35:40.585Z,201.43
2023-06-05T22:38:09.455Z,182.82
2023-06-05T22:40:35.983Z,133.35
2023-06-05T22:43:02.329Z,263.55
2023-06-05T22:45:28.803Z,187.18
2023-06-05T22:47:56.362Z,316.23
2023-06-05T22:50:22.815Z,274.73
2023-06-05T22:52:51.394Z,240.32
2023-06-05T22:55:17.848Z,226.40
2023-06-05T22:57:44.324Z,279.23
2023-06-05T23:00:12.122Z,235.73
2023-06-05T23:02:38.905Z,282.02
2023-06-05T23:05:06.658Z,315.90
2023-06-05T23:07:33.018Z,383.30
2023-06-05T23:09:59.460Z,374.15
2023-06-05T23:12:27.032Z,447.65
2023-06-05T23:14:54.732Z,445.88
2023-06-05T23:17:21.125Z,455.08
2023-06-05T23:19:47.525Z,370.15
2023-06-05T23:22:13.945Z,344.98
2023-06-05T23:24:40.533Z,359.85
2023-06-05T23:27:07.922Z,395.45
2023-06-05T23:29:34.332Z,426.17
2023-06-05T23:32:00.864Z,411.02
2023-06-05T23:34:27.333Z,396.38
2023-06-05T23:36:53.774Z,422.75
2023-06-05T23:39:20.263Z,415.40
2023-06-05T23:41:50.490Z,371.50
2023-06-05T23:44:18.057Z,445.80
2023-06-05T23:46:48.199Z,432.27
2023-06-05T23:49:14.696Z,384.00
2023-06-05T23:51:41.369Z,418.25
2023-06-05T23:54:08.070Z,391.40
2023-06-05T23:56:34.499Z,442.10
2023-06-05T23:59:00.861Z,474.25
